Time;durP1;ratioP1;P1;durP2;ratioP2;P2;SDS_P1;SDS_P2;PMS_P1;PMS_P2;Temp;Humidity;BMP_temperature;BMP_pressure;BME280_temperature;BME280_humidity;BME280_pressure;Samples;Min_cycle;Max_cycle;Signal;HPM_P1;HPM_P2
2021/01/22 00:02:09;;;;;;;6.40;1.48;;;11.00;99.90;;;;;;5017334;28;20160;-66
2021/01/22 00:04:35;;;;;;;2.67;0.40;;;11.00;99.90;;;;;;5001073;28;20026;-66
2021/01/22 00:07:01;;;;;;;2.42;1.02;;;11.00;99.90;;;;;;5019065;28;20052;-59
2021/01/22 00:09:26;;;;;;;2.47;0.68;;;11.00;99.90;;;;;;5018410;28;20143;-66
2021/01/22 00:11:52;;;;;;;0.65;0.30;;;10.90;99.90;;;;;;4984769;28;20029;-59
2021/01/22 00:14:18;;;;;;;2.05;0.57;;;10.90;99.90;;;;;;5018034;28;20423;-66
2021/01/22 00:16:43;;;;;;;1.70;0.60;;;10.90;99.90;;;;;;5000517;28;20029;-62
2021/01/22 00:19:09;;;;;;;2.75;0.60;;;10.90;99.90;;;;;;5019712;28;20376;-63
2021/01/22 00:21:36;;;;;;;3.60;0.60;;;10.90;99.90;;;;;;5018250;28;20353;-59
2021/01/22 00:24:03;;;;;;;1.23;1.02;;;11.00;99.90;;;;;;5018072;28;20026;-58
2021/01/22 00:26:29;;;;;;;1.88;0.75;;;10.90;99.90;;;;;;5015811;28;20041;-60
2021/01/22 00:28:54;;;;;;;1.98;0.90;;;10.90;99.90;;;;;;5016974;28;20026;-59
2021/01/22 00:31:20;;;;;;;1.35;0.60;;;10.90;99.90;;;;;;5018106;28;20026;-74
2021/01/22 00:33:46;;;;;;;0.98;0.50;;;10.80;99.90;;;;;;5018915;28;20483;-60
2021/01/22 00:36:11;;;;;;;1.60;0.75;;;10.80;99.90;;;;;;5018232;28;20034;-59
2021/01/22 00:38:37;;;;;;;2.08;0.50;;;10.80;99.90;;;;;;5017258;28;20026;-62
2021/01/22 00:41:03;;;;;;;1.75;0.52;;;10.80;99.90;;;;;;5016296;28;20036;-60
2021/01/22 00:43:29;;;;;;;1.92;0.55;;;10.90;99.90;;;;;;5014551;28;20073;-58
2021/01/22 00:45:54;;;;;;;1.38;0.90;;;10.80;99.90;;;;;;5014759;28;20034;-59
2021/01/22 00:48:20;;;;;;;3.97;1.08;;;10.80;99.90;;;;;;5016184;28;20065;-65
2021/01/22 00:50:45;;;;;;;2.35;0.65;;;10.90;99.90;;;;;;5018317;28;20022;-61
2021/01/22 00:53:11;;;;;;;1.33;0.52;;;10.80;99.90;;;;;;5017942;28;20034;-59
2021/01/22 00:55:37;;;;;;;1.73;0.60;;;10.90;99.90;;;;;;5017170;28;20030;-60
2021/01/22 00:58:03;;;;;;;3.33;1.73;;;10.90;99.90;;;;;;5017933;28;20045;-59
2021/01/22 01:00:31;;;;;;;7.10;0.90;;;10.90;99.90;;;;;;5015896;28;20033;-58
2021/01/22 01:02:57;;;;;;;3.38;0.95;;;10.90;99.90;;;;;;5017187;28;20117;-62
2021/01/22 01:05:23;;;;;;;1.65;0.60;;;10.90;99.90;;;;;;5015904;28;20480;-59
2021/01/22 01:07:48;;;;;;;2.38;0.90;;;11.00;99.90;;;;;;4998110;28;20073;-60
2021/01/22 01:10:14;;;;;;;1.85;0.77;;;10.90;99.90;;;;;;5016046;28;20113;-59
2021/01/22 01:12:40;;;;;;;1.38;0.80;;;11.00;99.90;;;;;;5015449;28;20460;-59
2021/01/22 01:15:06;;;;;;;2.65;1.00;;;10.90;99.90;;;;;;5014965;28;20455;-60
2021/01/22 01:17:33;;;;;;;4.85;0.75;;;10.90;99.90;;;;;;4996630;28;20490;-58
2021/01/22 01:19:58;;;;;;;0.93;0.50;;;11.00;99.90;;;;;;4997751;28;20030;-59
2021/01/22 01:22:24;;;;;;;1.35;0.50;;;11.00;99.90;;;;;;5015857;28;20115;-59
2021/01/22 01:24:50;;;;;;;2.35;0.45;;;11.00;99.90;;;;;;5017808;28;20037;-59
2021/01/22 01:27:15;;;;;;;2.30;0.68;;;11.00;99.90;;;;;;5016098;28;20030;-60
2021/01/22 01:29:41;;;;;;;1.48;0.70;;;11.00;99.90;;;;;;5014221;28;20319;-57
2021/01/22 01:32:06;;;;;;;1.25;0.73;;;10.90;99.90;;;;;;5014927;28;20053;-58
2021/01/22 01:34:32;;;;;;;1.13;0.68;;;10.90;99.90;;;;;;5014060;28;20030;-59
2021/01/22 01:36:58;;;;;;;1.20;0.75;;;10.90;99.90;;;;;;4996723;28;20479;-58
2021/01/22 01:39:23;;;;;;;3.20;0.70;;;10.90;99.90;;;;;;4996742;28;20041;-61
2021/01/22 01:41:49;;;;;;;3.58;1.08;;;10.80;99.90;;;;;;4997541;28;20022;-64
2021/01/22 01:44:15;;;;;;;1.30;0.63;;;10.80;99.90;;;;;;5017404;28;20077;-58
2021/01/22 01:46:40;;;;;;;4.10;0.60;;;10.80;99.90;;;;;;5016100;28;20112;-59
2021/01/22 01:49:06;;;;;;;1.58;0.60;;;10.80;99.90;;;;;;5015762;28;20029;-59
2021/01/22 01:51:32;;;;;;;2.22;0.73;;;10.70;99.90;;;;;;4996997;28;20474;-64
2021/01/22 01:53:58;;;;;;;3.75;1.45;;;10.70;99.90;;;;;;5014480;28;20026;-57
2021/01/22 01:56:24;;;;;;;0.88;0.50;;;10.70;99.90;;;;;;5013556;28;20033;-66
2021/01/22 01:58:50;;;;;;;2.70;0.50;;;10.60;99.90;;;;;;4996074;28;20026;-59
2021/01/22 02:01:17;;;;;;;1.85;0.60;;;10.60;99.90;;;;;;5014454;28;20110;-63
2021/01/22 02:03:44;;;;;;;1.00;0.57;;;10.60;99.90;;;;;;5013690;28;20044;-59
2021/01/22 02:06:09;;;;;;;2.90;1.00;;;10.60;99.90;;;;;;5013899;28;20045;-58
2021/01/22 02:08:36;;;;;;;2.88;0.57;;;10.60;99.90;;;;;;5014080;28;20038;-59
2021/01/22 02:11:04;;;;;;;1.85;1.00;;;10.50;99.90;;;;;;4997892;28;20069;-62
2021/01/22 02:13:31;;;;;;;1.50;0.70;;;10.50;99.90;;;;;;4997675;28;20383;-59
2021/01/22 02:15:58;;;;;;;0.85;0.47;;;10.40;99.90;;;;;;4998381;28;20022;-61
2021/01/22 02:18:25;;;;;;;3.95;0.43;;;10.30;99.90;;;;;;5016976;28;20164;-63
2021/01/22 02:21:14;;;;;;;3.13;0.80;;;10.40;99.90;;;;;;5016668;28;20025;-63
2021/01/22 02:23:45;;;;;;;0.70;0.40;;;10.30;99.90;;;;;;4996514;28;20132;-59
2021/01/22 02:26:27;;;;;;;1.17;0.67;;;10.30;99.90;;;;;;5015271;28;20040;-59
2021/01/22 02:29:00;;;;;;;1.85;0.70;;;10.30;99.90;;;;;;4997371;28;20100;-59
2021/01/22 02:31:28;;;;;;;0.68;0.38;;;10.30;99.90;;;;;;5014208;28;20095;-64
2021/01/22 02:34:00;;;;;;;3.25;0.45;;;10.40;99.90;;;;;;4997157;28;20053;-59
2021/01/22 02:36:26;;;;;;;2.55;0.65;;;10.40;99.90;;;;;;4997162;28;20100;-59
2021/01/22 02:38:54;;;;;;;0.77;0.40;;;10.40;99.90;;;;;;5015767;28;20042;-59
2021/01/22 02:41:21;;;;;;;0.70;0.38;;;10.40;99.90;;;;;;5015681;28;20105;-60
2021/01/22 02:43:53;;;;;;;2.03;0.20;;;10.40;99.90;;;;;;4997875;28;20030;-60
2021/01/22 02:46:19;;;;;;;1.00;0.15;;;10.40;99.90;;;;;;5016262;28;20054;-59
2021/01/22 02:48:46;;;;;;;0.90;0.22;;;10.40;99.90;;;;;;5014333;28;20044;-58
2021/01/22 02:51:15;;;;;;;0.63;0.20;;;10.40;99.90;;;;;;5013477;28;20033;-59
2021/01/22 02:53:44;;;;;;;1.98;0.25;;;10.50;99.90;;;;;;5012795;28;20464;-59
2021/01/22 02:56:22;;;;;;;1.92;0.40;;;10.50;99.90;;;;;;5013261;28;20022;-58
2021/01/22 02:59:01;;;;;;;2.17;0.30;;;10.40;99.90;;;;;;4995144;28;20168;-58
2021/01/22 03:01:29;;;;;;;2.20;0.30;;;10.40;99.90;;;;;;4995724;28;20060;-67
2021/01/22 03:04:09;;;;;;;1.38;0.60;;;10.50;99.90;;;;;;4996540;28;20065;-60
2021/01/22 03:06:42;;;;;;;1.33;0.40;;;10.40;99.90;;;;;;4995510;28;20054;-62
2021/01/22 03:09:18;;;;;;;1.67;0.35;;;10.50;99.90;;;;;;5003877;28;20034;-59
2021/01/22 03:11:48;;;;;;;0.95;0.20;;;10.50;99.90;;;;;;5004593;28;20057;-59
2021/01/22 03:14:16;;;;;;;1.58;0.25;;;10.50;99.90;;;;;;4999714;28;20041;-59
2021/01/22 03:16:42;;;;;;;4.82;0.55;;;10.50;99.90;;;;;;4999733;28;20040;-61
2021/01/22 03:19:08;;;;;;;2.33;0.60;;;10.50;99.90;;;;;;5018828;28;20064;-58
2021/01/22 03:21:33;;;;;;;3.20;0.40;;;10.50;99.90;;;;;;5018043;28;20033;-62
2021/01/22 03:24:00;;;;;;;1.33;0.30;;;10.50;99.90;;;;;;5017467;28;20384;-61
2021/01/22 03:26:25;;;;;;;3.10;0.88;;;10.50;99.90;;;;;;5017280;28;20061;-59
2021/01/22 03:28:51;;;;;;;2.20;0.40;;;10.40;99.90;;;;;;5016997;28;20030;-59
2021/01/22 03:31:17;;;;;;;2.28;0.20;;;10.50;99.90;;;;;;5016049;28;20391;-59
2021/01/22 03:33:45;;;;;;;3.33;0.40;;;10.40;99.90;;;;;;4998713;28;20028;-58
2021/01/22 03:36:10;;;;;;;2.25;0.80;;;10.40;99.90;;;;;;4999040;28;20038;-58
2021/01/22 03:38:36;;;;;;;4.18;0.55;;;10.40;99.90;;;;;;5016980;28;20092;-58
2021/01/22 03:41:03;;;;;;;1.35;0.47;;;10.40;99.90;;;;;;5016948;28;20434;-57
2021/01/22 03:43:28;;;;;;;1.67;0.40;;;10.50;99.90;;;;;;4999322;28;20026;-59
2021/01/22 03:45:54;;;;;;;3.25;0.57;;;10.50;99.90;;;;;;5016542;28;20094;-59
2021/01/22 03:48:20;;;;;;;4.47;0.60;;;10.50;99.90;;;;;;5016678;28;20030;-59
2021/01/22 03:50:46;;;;;;;2.10;0.70;;;10.50;99.90;;;;;;4998313;28;20443;-63
2021/01/22 03:53:12;;;;;;;3.50;0.50;;;10.50;99.90;;;;;;5017242;28;20032;-58
2021/01/22 03:55:38;;;;;;;3.10;0.60;;;10.50;99.90;;;;;;5018276;28;20033;-62
2021/01/22 03:58:04;;;;;;;1.40;0.52;;;10.50;99.90;;;;;;5019491;28;20034;-61
2021/01/22 04:00:30;;;;;;;2.17;0.82;;;10.50;99.90;;;;;;5017887;28;20489;-58
2021/01/22 04:02:57;;;;;;;9.80;0.85;;;10.50;99.90;;;;;;4999559;28;20112;-61
2021/01/22 04:05:23;;;;;;;1.58;0.40;;;10.60;99.90;;;;;;5016404;28;20030;-62
2021/01/22 04:07:49;;;;;;;1.08;0.43;;;10.60;99.90;;;;;;5016260;28;20073;-65
2021/01/22 04:10:14;;;;;;;6.03;0.80;;;10.50;99.90;;;;;;5016756;28;20064;-59
2021/01/22 04:12:40;;;;;;;1.67;0.50;;;10.50;99.90;;;;;;4998187;28;20049;-63
2021/01/22 04:15:06;;;;;;;3.05;0.68;;;10.50;99.90;;;;;;4998866;28;20030;-59
2021/01/22 04:17:33;;;;;;;0.70;0.40;;;10.50;99.90;;;;;;4998279;28;20053;-65
2021/01/22 04:19:59;;;;;;;3.13;0.60;;;10.60;99.90;;;;;;5015431;28;20026;-60
2021/01/22 04:22:24;;;;;;;1.85;0.82;;;10.60;99.90;;;;;;5016535;28;20353;-59
2021/01/22 04:24:50;;;;;;;2.88;0.85;;;10.60;99.90;;;;;;5015946;28;20021;-59
2021/01/22 04:27:16;;;;;;;1.33;0.65;;;10.60;99.90;;;;;;5016284;28;20041;-59
2021/01/22 04:29:41;;;;;;;2.53;0.47;;;10.60;99.90;;;;;;4998093;28;20026;-63
2021/01/22 04:32:07;;;;;;;2.45;0.50;;;10.60;99.90;;;;;;5016315;28;20136;-59
2021/01/22 04:34:34;;;;;;;3.88;0.57;;;10.60;99.90;;;;;;4998679;28;20531;-70
2021/01/22 04:36:59;;;;;;;2.20;0.57;;;10.60;99.90;;;;;;5016485;28;20038;-59
2021/01/22 04:39:25;;;;;;;4.22;0.63;;;10.60;99.90;;;;;;5015967;28;20373;-60
2021/01/22 04:41:52;;;;;;;3.28;0.70;;;10.60;99.90;;;;;;5015645;28;20447;-59
2021/01/22 04:44:17;;;;;;;2.10;0.60;;;10.50;99.90;;;;;;4998340;28;20034;-59
2021/01/22 04:46:44;;;;;;;2.72;0.60;;;10.50;99.90;;;;;;4997353;28;20384;-59
2021/01/22 04:49:11;;;;;;;3.88;1.08;;;10.50;99.90;;;;;;5016347;28;20033;-58
2021/01/22 04:51:37;;;;;;;3.55;1.00;;;10.50;99.90;;;;;;5016785;28;20038;-62
2021/01/22 04:54:13;;;;;;;2.08;0.70;;;10.60;99.90;;;;;;4999677;28;20030;-63
2021/01/22 04:56:43;;;;;;;2.25;0.57;;;10.50;99.90;;;;;;4999722;28;20029;-60
2021/01/22 04:59:15;;;;;;;3.30;0.60;;;10.50;99.90;;;;;;5017481;28;20029;-60
2021/01/22 05:01:43;;;;;;;2.25;0.55;;;10.50;99.90;;;;;;5017575;28;20026;-59
2021/01/22 05:04:09;;;;;;;2.22;0.50;;;10.40;99.90;;;;;;5017095;28;20030;-58
2021/01/22 05:06:35;;;;;;;3.97;0.70;;;10.40;99.90;;;;;;4998451;28;20050;-64
2021/01/22 05:09:01;;;;;;;2.63;0.80;;;10.40;99.90;;;;;;4999374;28;20494;-61
2021/01/22 05:11:26;;;;;;;6.32;1.02;;;10.40;99.90;;;;;;5016421;28;20122;-62
2021/01/22 05:13:53;;;;;;;5.60;1.23;;;10.40;99.90;;;;;;5015659;28;20535;-62
2021/01/22 05:16:19;;;;;;;4.45;1.27;;;10.40;99.90;;;;;;5016399;28;20029;-58
2021/01/22 05:18:44;;;;;;;5.78;0.95;;;10.40;99.90;;;;;;5016318;28;20389;-59
2021/01/22 05:21:12;;;;;;;4.28;1.45;;;10.40;99.90;;;;;;4999266;28;20026;-60
2021/01/22 05:23:39;;;;;;;3.60;1.08;;;10.50;99.90;;;;;;4998679;28;20467;-59
2021/01/22 05:26:14;;;;;;;3.80;0.60;;;10.50;99.90;;;;;;4998745;28;20026;-58
2021/01/22 05:28:42;;;;;;;5.88;0.95;;;10.50;99.90;;;;;;4998488;28;20029;-64
2021/01/22 05:31:09;;;;;;;3.65;1.45;;;10.50;99.90;;;;;;5000293;28;20034;-65
2021/01/22 05:33:38;;;;;;;4.07;0.70;;;10.50;99.90;;;;;;4999708;28;20064;-58
2021/01/22 05:36:24;;;;;;;4.00;0.73;;;10.50;99.90;;;;;;5000064;28;20034;-61
2021/01/22 05:38:55;;;;;;;2.63;0.70;;;10.40;99.90;;;;;;4999161;28;20041;-59
2021/01/22 05:41:22;;;;;;;5.00;1.27;;;10.40;99.90;;;;;;4999686;28;20521;-59
2021/01/22 05:43:50;;;;;;;3.97;0.70;;;10.40;99.90;;;;;;5016213;28;20037;-61
2021/01/22 05:46:24;;;;;;;4.60;0.60;;;10.50;99.90;;;;;;4999719;28;20030;-62
2021/01/22 05:49:19;;;;;;;4.28;1.13;;;10.40;99.90;;;;;;5015954;28;20368;-60
2021/01/22 05:51:44;;;;;;;3.03;1.10;;;10.40;99.90;;;;;;4990009;28;20499;-62
2021/01/22 05:54:39;;;;;;;2.20;0.60;;;10.30;99.90;;;;;;4999535;28;20026;-65
2021/01/22 05:57:05;;;;;;;6.05;0.77;;;10.40;99.90;;;;;;5016419;28;20050;-60
2021/01/22 05:59:32;;;;;;;5.85;1.10;;;10.40;99.90;;;;;;4998620;28;20033;-63
2021/01/22 06:01:58;;;;;;;6.43;0.80;;;10.40;99.90;;;;;;5015538;28;20206;-63
2021/01/22 06:04:24;;;;;;;5.82;1.13;;;10.40;99.90;;;;;;5016450;28;20030;-59
2021/01/22 06:06:51;;;;;;;3.42;1.17;;;10.40;99.90;;;;;;5015436;28;20499;-61
2021/01/22 06:09:37;;;;;;;2.80;0.82;;;10.30;99.90;;;;;;5016961;28;20026;-61
2021/01/22 06:12:03;;;;;;;5.03;0.80;;;10.20;99.90;;;;;;5015019;28;20030;-59
2021/01/22 06:14:34;;;;;;;3.35;0.80;;;10.20;99.90;;;;;;4998220;28;20547;-59
2021/01/22 06:17:05;;;;;;;2.35;0.80;;;10.30;99.90;;;;;;5014750;28;20033;-60
2021/01/22 06:19:34;;;;;;;4.18;0.65;;;10.30;99.90;;;;;;5015429;28;20030;-60
2021/01/22 06:22:08;;;;;;;7.93;1.77;;;10.20;99.90;;;;;;4996961;28;20064;-61
2021/01/22 06:24:33;;;;;;;3.50;0.80;;;10.20;99.90;;;;;;4998107;28;20029;-64
2021/01/22 06:27:01;;;;;;;2.47;0.63;;;10.10;99.90;;;;;;5015383;28;20068;-61
2021/01/22 06:29:29;;;;;;;5.43;0.68;;;10.10;99.90;;;;;;5016020;28;20487;-60
2021/01/22 06:31:56;;;;;;;5.75;1.15;;;10.10;99.90;;;;;;4997023;28;20120;-65
2021/01/22 06:34:24;;;;;;;6.55;1.02;;;10.00;99.90;;;;;;4997680;28;20395;-59
2021/01/22 06:36:51;;;;;;;2.53;0.75;;;10.00;99.90;;;;;;5013992;28;20035;-59
2021/01/22 06:39:18;;;;;;;3.58;0.75;;;10.00;99.90;;;;;;5014709;28;20029;-59
2021/01/22 06:41:45;;;;;;;4.38;0.85;;;10.00;99.90;;;;;;5013166;28;20030;-65
2021/01/22 06:44:12;;;;;;;2.63;0.80;;;10.00;99.90;;;;;;4971721;28;20047;-59
2021/01/22 06:46:37;;;;;;;3.90;0.38;;;9.70;99.90;;;;;;4972149;28;20070;-61
2021/01/22 06:49:04;;;;;;;5.97;0.47;;;9.60;99.90;;;;;;4955487;28;20151;-62
2021/01/22 06:51:35;;;;;;;2.70;0.25;;;9.50;99.90;;;;;;4956861;28;20427;-64
2021/01/22 06:54:20;;;;;;;11.55;1.38;;;9.40;99.90;;;;;;4972621;28;20059;-61
2021/01/22 06:57:04;;;;;;;1.90;0.25;;;9.80;99.90;;;;;;4973390;28;20047;-70
2021/01/22 06:59:30;;;;;;;0.80;0.00;;;10.00;99.90;;;;;;4973162;28;20035;-60
2021/01/22 07:01:57;;;;;;;0.95;0.20;;;9.70;99.90;;;;;;4973056;28;20055;-60
2021/01/22 07:04:35;;;;;;;4.60;0.57;;;9.30;99.90;;;;;;4973037;28;20086;-61
2021/01/22 07:07:05;;;;;;;1.67;0.55;;;8.50;99.90;;;;;;4972116;28;20152;-60
2021/01/22 07:09:46;;;;;;;2.10;0.10;;;8.40;99.90;;;;;;4965548;28;20398;-61
2021/01/22 07:12:17;;;;;;;0.70;0.10;;;8.20;99.90;;;;;;4978433;28;20033;-62
2021/01/22 07:14:43;;;;;;;1.17;0.50;;;8.10;99.90;;;;;;4990985;28;20519;-66
2021/01/22 07:17:19;;;;;;;3.00;0.17;;;8.00;99.90;;;;;;4991319;28;20085;-60
2021/01/22 07:20:04;;;;;;;1.33;0.10;;;8.10;99.90;;;;;;4991531;28;20081;-67
2021/01/22 07:22:31;;;;;;;0.52;0.20;;;8.20;99.90;;;;;;5028296;28;20113;-61
2021/01/22 07:24:59;;;;;;;1.67;0.10;;;8.10;99.90;;;;;;5033103;28;20029;-61
2021/01/22 07:27:45;;;;;;;0.82;0.00;;;8.20;99.90;;;;;;5016346;28;20044;-61
2021/01/22 07:30:13;;;;;;;2.47;0.65;;;8.10;99.90;;;;;;5031565;28;20042;-61
2021/01/22 07:32:41;;;;;;;1.77;0.22;;;8.10;99.90;;;;;;5014881;28;20026;-59
2021/01/22 07:35:30;;;;;;;1.08;0.15;;;8.10;99.90;;;;;;5014537;28;20026;-60
2021/01/22 07:37:56;;;;;;;0.70;0.10;;;7.90;99.90;;;;;;5002997;28;20085;-58
2021/01/22 07:40:22;;;;;;;0.88;0.10;;;8.00;99.90;;;;;;4992585;28;20030;-61
2021/01/22 07:42:48;;;;;;;0.95;0.00;;;7.90;99.90;;;;;;5012256;28;20026;-69
2021/01/22 07:45:15;;;;;;;2.35;0.10;;;7.90;99.90;;;;;;5013376;28;20382;-59
2021/01/22 07:47:43;;;;;;;1.45;0.30;;;7.80;99.90;;;;;;5032096;28;20075;-60
2021/01/22 07:50:12;;;;;;;0.80;0.25;;;7.80;99.90;;;;;;5031516;28;20117;-60
2021/01/22 07:52:49;;;;;;;3.05;0.25;;;7.80;99.90;;;;;;5031855;28;20032;-65
2021/01/22 07:55:20;;;;;;;0.57;0.00;;;7.90;99.90;;;;;;5014993;28;20030;-59
2021/01/22 07:58:00;;;;;;;0.20;0.10;;;7.80;99.90;;;;;;5017966;28;20033;-65
2021/01/22 08:00:35;;;;;;;1.65;0.10;;;7.80;99.90;;;;;;5035073;28;20040;-60
2021/01/22 08:03:01;;;;;;;3.35;0.20;;;7.80;99.90;;;;;;5017332;28;20083;-60
2021/01/22 08:05:34;;;;;;;1.10;0.30;;;7.60;99.90;;;;;;5017728;28;20406;-61
2021/01/22 08:08:02;;;;;;;2.42;0.40;;;7.80;99.90;;;;;;5022703;28;20479;-60
2021/01/22 08:10:29;;;;;;;1.05;0.10;;;7.60;99.90;;;;;;5016869;28;20038;-60
2021/01/22 08:12:58;;;;;;;0.50;0.10;;;7.70;99.90;;;;;;5014094;28;20034;-60
2021/01/22 08:15:25;;;;;;;2.40;0.30;;;7.60;99.90;;;;;;5014861;28;20495;-67
2021/01/22 08:17:51;;;;;;;0.50;0.22;;;7.60;99.90;;;;;;5014908;28;20121;-64
2021/01/22 08:20:19;;;;;;;0.85;0.30;;;7.70;99.90;;;;;;5015792;28;20037;-60
2021/01/22 08:22:57;;;;;;;1.00;0.20;;;7.60;99.90;;;;;;4998364;28;20029;-60
2021/01/22 08:25:38;;;;;;;0.77;0.22;;;7.50;99.90;;;;;;4998834;28;20088;-61
2021/01/22 08:28:06;;;;;;;3.30;0.28;;;7.50;99.90;;;;;;4998378;28;20130;-61
2021/01/22 08:30:32;;;;;;;2.72;0.20;;;7.60;99.90;;;;;;4998817;28;20103;-59
2021/01/22 08:32:58;;;;;;;0.80;0.17;;;7.60;99.90;;;;;;5014900;28;20030;-62
2021/01/22 08:35:25;;;;;;;2.03;0.38;;;7.60;99.90;;;;;;4997343;28;20494;-59
2021/01/22 08:37:55;;;;;;;1.33;0.20;;;7.60;99.90;;;;;;4996461;28;20046;-69
2021/01/22 08:40:22;;;;;;;0.77;0.30;;;7.50;99.90;;;;;;4996868;28;20021;-59
2021/01/22 08:43:06;;;;;;;2.78;0.47;;;7.60;99.90;;;;;;5015214;28;20036;-65
2021/01/22 08:45:32;;;;;;;2.95;0.65;;;7.50;99.90;;;;;;4994416;28;20030;-61
2021/01/22 08:47:58;;;;;;;1.42;0.22;;;7.50;99.90;;;;;;5014009;28;20073;-60
2021/01/22 08:50:25;;;;;;;1.05;0.30;;;7.40;99.90;;;;;;5014464;28;20061;-60
2021/01/22 08:53:09;;;;;;;1.08;0.30;;;7.50;99.90;;;;;;4980649;28;20068;-61
2021/01/22 08:55:35;;;;;;;1.58;0.63;;;7.50;99.90;;;;;;4997350;28;20065;-60
2021/01/22 08:58:11;;;;;;;1.42;0.70;;;7.50;99.90;;;;;;5013563;28;20069;-62
2021/01/22 09:00:40;;;;;;;2.05;0.75;;;7.40;99.90;;;;;;4997006;28;20108;-60
2021/01/22 09:03:19;;;;;;;3.97;1.02;;;7.50;99.90;;;;;;4997192;28;20057;-61
2021/01/22 09:05:55;;;;;;;6.13;0.50;;;7.60;99.90;;;;;;4998731;28;20034;-60
2021/01/22 09:08:23;;;;;;;0.70;0.40;;;7.60;99.90;;;;;;4999088;28;20495;-61
2021/01/22 09:10:50;;;;;;;3.35;0.75;;;7.80;99.90;;;;;;5016579;28;20030;-66
2021/01/22 09:13:21;;;;;;;3.63;0.75;;;7.80;99.90;;;;;;5016813;28;20105;-66
2021/01/22 09:15:47;;;;;;;2.53;0.90;;;7.50;99.90;;;;;;4998457;28;20026;-63
2021/01/22 09:18:22;;;;;;;5.38;0.65;;;7.40;99.90;;;;;;4999543;28;20030;-66
2021/01/22 09:20:58;;;;;;;2.25;0.30;;;7.50;99.90;;;;;;5006364;28;20025;-61
2021/01/22 09:23:24;;;;;;;1.20;0.32;;;7.50;99.90;;;;;;4989166;28;20050;-62
2021/01/22 09:25:49;;;;;;;2.10;0.57;;;7.60;99.90;;;;;;5009928;28;20076;-64
2021/01/22 09:28:15;;;;;;;2.72;1.90;;;7.70;99.90;;;;;;5034993;28;20090;-62
2021/01/22 09:30:42;;;;;;;2.22;1.30;;;7.90;99.90;;;;;;5013869;28;20116;-60
2021/01/22 09:33:08;;;;;;;2.97;1.48;;;8.50;99.90;;;;;;5019608;28;20021;-62
2021/01/22 09:35:33;;;;;;;4.72;2.85;;;8.60;99.90;;;;;;5004032;28;20056;-62
2021/01/22 09:37:59;;;;;;;7.43;2.60;;;8.70;99.90;;;;;;5016263;28;20044;-63
2021/01/22 09:40:26;;;;;;;1.35;0.55;;;8.70;99.90;;;;;;5008348;28;20470;-62
2021/01/22 09:42:51;;;;;;;0.90;0.50;;;8.50;99.90;;;;;;5015163;28;20029;-66
2021/01/22 09:45:18;;;;;;;0.88;0.47;;;8.30;99.90;;;;;;5016112;28;20022;-62
2021/01/22 09:47:44;;;;;;;1.48;0.40;;;8.30;99.90;;;;;;5016060;28;20565;-60
2021/01/22 09:50:12;;;;;;;2.00;0.50;;;8.10;99.90;;;;;;5015913;28;20025;-60
2021/01/22 09:52:38;;;;;;;2.72;0.70;;;8.10;99.90;;;;;;5034040;28;20025;-60
2021/01/22 09:55:10;;;;;;;0.73;0.20;;;8.00;99.90;;;;;;5004570;28;20109;-62
2021/01/22 09:57:36;;;;;;;2.90;0.40;;;7.80;99.90;;;;;;4991836;28;20106;-61
2021/01/22 10:00:04;;;;;;;2.10;0.30;;;7.60;99.90;;;;;;4992801;28;20042;-63
2021/01/22 10:02:30;;;;;;;0.57;0.17;;;7.70;99.90;;;;;;5018877;28;20097;-61
2021/01/22 10:04:56;;;;;;;3.47;0.40;;;7.70;99.90;;;;;;4998046;28;20503;-70
2021/01/22 10:07:22;;;;;;;0.77;0.30;;;7.70;99.90;;;;;;5017810;28;20491;-61
2021/01/22 10:09:48;;;;;;;4.85;1.38;;;7.90;99.90;;;;;;5024115;28;20014;-60
2021/01/22 10:12:14;;;;;;;9.43;5.30;;;7.70;99.90;;;;;;5015721;28;20033;-63
2021/01/22 10:14:40;;;;;;;4.00;1.98;;;7.80;99.90;;;;;;5016976;28;20365;-63
2021/01/22 10:17:07;;;;;;;1.42;0.40;;;7.80;99.90;;;;;;5001698;28;20034;-63
2021/01/22 10:19:32;;;;;;;0.63;0.28;;;7.80;99.90;;;;;;5021701;28;20017;-60
2021/01/22 10:21:58;;;;;;;1.45;0.30;;;7.80;99.90;;;;;;5005290;28;20472;-62
2021/01/22 10:24:24;;;;;;;2.40;0.77;;;7.90;99.90;;;;;;5015062;28;20282;-62
2021/01/22 10:26:50;;;;;;;1.77;0.85;;;7.80;99.90;;;;;;5033155;28;20454;-60
2021/01/22 10:29:16;;;;;;;3.25;0.77;;;7.80;99.90;;;;;;5033008;28;20060;-63
2021/01/22 10:31:43;;;;;;;7.38;2.70;;;7.80;99.90;;;;;;5016944;28;20026;-62
2021/01/22 10:34:09;;;;;;;3.05;1.50;;;7.90;99.90;;;;;;5011629;28;20467;-62
2021/01/22 10:36:35;;;;;;;0.90;0.50;;;8.50;99.90;;;;;;5013357;28;20041;-63
2021/01/22 10:39:01;;;;;;;1.45;0.40;;;8.90;99.90;;;;;;4959989;28;20035;-64
2021/01/22 10:41:28;;;;;;;2.25;0.30;;;8.50;99.90;;;;;;5017714;28;20450;-60
2021/01/22 10:43:55;;;;;;;1.45;0.40;;;8.30;99.90;;;;;;5021076;28;20049;-67
2021/01/22 10:46:20;;;;;;;0.93;0.20;;;8.10;99.90;;;;;;5013303;28;20080;-60
2021/01/22 10:48:46;;;;;;;2.05;0.10;;;8.00;99.90;;;;;;5012475;28;20033;-61
2021/01/22 10:51:12;;;;;;;1.48;0.55;;;8.00;99.90;;;;;;5011771;28;20042;-61
2021/01/22 10:53:38;;;;;;;1.63;0.30;;;7.90;99.90;;;;;;4993977;28;20061;-70
2021/01/22 10:56:04;;;;;;;2.45;0.50;;;7.90;99.90;;;;;;4993904;28;20053;-60
2021/01/22 10:58:30;;;;;;;0.60;0.20;;;7.80;99.90;;;;;;4993465;28;20395;-61
2021/01/22 11:00:56;;;;;;;2.95;0.20;;;7.80;99.90;;;;;;4994093;28;20018;-68
2021/01/22 11:03:22;;;;;;;1.20;0.40;;;7.80;99.90;;;;;;5011406;28;20025;-60
2021/01/22 11:05:47;;;;;;;3.50;0.45;;;7.70;99.90;;;;;;5010673;28;20083;-60
2021/01/22 11:08:13;;;;;;;4.88;0.57;;;7.60;99.90;;;;;;4993763;28;20061;-62
2021/01/22 11:10:39;;;;;;;0.43;0.20;;;7.50;99.90;;;;;;5012313;28;20034;-61
2021/01/22 11:13:05;;;;;;;1.85;1.05;;;7.00;99.90;;;;;;4997197;28;20036;-62
2021/01/22 11:15:33;;;;;;;3.35;1.02;;;7.00;99.90;;;;;;4995960;28;20094;-61
2021/01/22 11:17:59;;;;;;;1.13;0.82;;;7.20;99.90;;;;;;5010837;28;20057;-65
2021/01/22 11:20:24;;;;;;;1.88;0.60;;;6.90;99.90;;;;;;5009555;28;20060;-60
2021/01/22 11:22:50;;;;;;;1.92;0.80;;;6.80;99.90;;;;;;5011872;28;20034;-62
2021/01/22 11:25:17;;;;;;;1.23;0.88;;;7.00;99.90;;;;;;5010881;28;20022;-65
2021/01/22 11:27:44;;;;;;;0.57;0.20;;;6.90;99.90;;;;;;5013733;28;20083;-61
2021/01/22 11:30:10;;;;;;;2.40;0.30;;;6.80;99.90;;;;;;5015166;28;20033;-60
2021/01/22 11:32:37;;;;;;;0.30;0.20;;;6.60;99.90;;;;;;5018459;28;20037;-61
2021/01/22 11:35:04;;;;;;;1.70;0.38;;;6.60;99.90;;;;;;5016105;28;20052;-64
2021/01/22 11:37:30;;;;;;;0.68;0.55;;;6.60;99.90;;;;;;5006318;28;20043;-66
2021/01/22 11:39:56;;;;;;;4.70;1.70;;;6.50;99.90;;;;;;5017592;28;20060;-63
2021/01/22 11:42:22;;;;;;;0.47;0.20;;;6.40;99.90;;;;;;5017711;28;20021;-59
2021/01/22 11:44:48;;;;;;;0.30;0.10;;;6.20;99.90;;;;;;5017427;28;20021;-61
2021/01/22 11:47:15;;;;;;;0.57;0.28;;;6.00;99.90;;;;;;5016828;28;20411;-63
2021/01/22 11:49:41;;;;;;;0.60;0.30;;;6.30;99.90;;;;;;5035886;28;20029;-62
2021/01/22 11:52:10;;;;;;;1.23;0.60;;;6.30;99.90;;;;;;5034473;28;20033;-63
2021/01/22 11:54:35;;;;;;;1.95;0.95;;;6.40;99.90;;;;;;5025046;28;20022;-61
2021/01/22 11:57:01;;;;;;;2.30;1.23;;;6.40;99.90;;;;;;5016375;28;20126;-69
2021/01/22 11:59:27;;;;;;;1.90;0.70;;;6.30;99.90;;;;;;5034936;28;20147;-61
2021/01/22 12:01:53;;;;;;;12.43;3.92;;;6.50;99.90;;;;;;5017218;28;20484;-60
2021/01/22 12:04:18;;;;;;;3.22;0.63;;;6.60;99.90;;;;;;5017076;28;20024;-60
2021/01/22 12:06:45;;;;;;;8.20;4.00;;;6.60;99.90;;;;;;5015925;28;20526;-60
2021/01/22 12:09:10;;;;;;;1.85;0.57;;;6.50;99.90;;;;;;4997516;28;20091;-62
2021/01/22 12:11:36;;;;;;;2.95;0.90;;;6.40;99.90;;;;;;4998895;28;20387;-62
2021/01/22 12:14:02;;;;;;;4.38;1.48;;;6.40;99.90;;;;;;5014369;28;20033;-66
2021/01/22 12:16:28;;;;;;;1.42;0.50;;;6.40;99.90;;;;;;4997933;28;20026;-59
2021/01/22 12:18:53;;;;;;;1.00;0.73;;;6.50;99.90;;;;;;5014801;28;20092;-59
2021/01/22 12:21:19;;;;;;;1.48;0.70;;;6.50;99.90;;;;;;4996918;28;20105;-61
2021/01/22 12:23:45;;;;;;;1.20;0.50;;;6.40;99.90;;;;;;4996850;28;20022;-60
2021/01/22 12:26:12;;;;;;;2.05;0.60;;;6.60;99.90;;;;;;5015099;28;20033;-63
2021/01/22 12:28:38;;;;;;;3.83;0.80;;;6.70;99.90;;;;;;5016233;28;20056;-60
2021/01/22 12:31:05;;;;;;;2.67;1.00;;;6.80;99.90;;;;;;5016635;28;20439;-60
2021/01/22 12:33:31;;;;;;;0.63;0.55;;;6.80;99.90;;;;;;5017157;28;20033;-64
2021/01/22 12:35:57;;;;;;;1.52;0.55;;;6.30;99.90;;;;;;5035061;28;20025;-60
2021/01/22 12:38:23;;;;;;;3.92;1.02;;;6.10;99.90;;;;;;5000771;28;20100;-61
2021/01/22 12:40:49;;;;;;;1.02;0.63;;;6.30;99.90;;;;;;4996321;28;20030;-60
2021/01/22 12:43:15;;;;;;;1.30;0.57;;;6.30;99.90;;;;;;4996536;28;20080;-60
2021/01/22 12:45:41;;;;;;;3.63;1.08;;;6.40;99.90;;;;;;4981141;28;20438;-64
2021/01/22 12:48:07;;;;;;;1.70;0.80;;;6.20;99.90;;;;;;5025320;28;20033;-60
2021/01/22 12:50:33;;;;;;;2.50;1.33;;;6.00;99.90;;;;;;5035678;28;20025;-61
2021/01/22 12:52:59;;;;;;;3.33;0.65;;;5.90;99.90;;;;;;5034943;28;20109;-64
2021/01/22 12:55:26;;;;;;;1.10;0.70;;;6.10;99.90;;;;;;5035479;28;20022;-60